createdAt,value
2019-02-11T00:01:41.416Z,2.95
2019-02-11T00:04:13.075Z,2.99
2019-02-11T00:06:44.787Z,3.01
2019-02-11T00:09:16.499Z,3.03
2019-02-11T00:11:49.397Z,3.00
2019-02-11T00:14:20.864Z,2.99
2019-02-11T00:16:52.449Z,2.97
2019-02-11T00:19:26.887Z,3.00
2019-02-11T00:21:58.398Z,2.91
2019-02-11T00:24:30.134Z,2.93
2019-02-11T00:27:01.616Z,2.93
2019-02-11T00:29:33.187Z,2.92
2019-02-11T00:32:04.795Z,2.90
2019-02-11T00:34:36.330Z,2.94
2019-02-11T00:37:08.102Z,2.95
2019-02-11T00:39:39.559Z,2.99
2019-02-11T00:42:11.098Z,2.97
2019-02-11T00:44:42.733Z,2.97
2019-02-11T00:47:14.388Z,2.99
2019-02-11T00:49:45.967Z,3.01
2019-02-11T00:52:17.582Z,3.03
2019-02-11T00:54:49.093Z,3.09
2019-02-11T00:57:20.684Z,3.11
2019-02-11T00:59:52.253Z,3.13
2019-02-11T01:02:23.971Z,3.13
2019-02-11T01:04:55.520Z,3.13
2019-02-11T01:07:27.043Z,3.13
2019-02-11T01:09:58.741Z,3.13
2019-02-11T01:12:30.244Z,3.15
2019-02-11T01:15:01.903Z,3.11
2019-02-11T01:17:33.983Z,3.13
2019-02-11T01:20:06.191Z,3.14
2019-02-11T01:22:37.779Z,3.12
2019-02-11T01:25:10.331Z,3.08
2019-02-11T01:27:41.907Z,3.14
2019-02-11T01:30:14.488Z,3.14
2019-02-11T01:32:46.008Z,3.11
2019-02-11T01:35:17.676Z,3.06
2019-02-11T01:37:49.322Z,3.08
2019-02-11T01:40:20.855Z,3.03
2019-02-11T01:42:54.437Z,3.02
2019-02-11T01:45:25.668Z,2.99
2019-02-11T01:47:57.213Z,3.04
2019-02-11T01:50:28.732Z,2.97
2019-02-11T01:53:00.325Z,2.91
2019-02-11T01:55:31.831Z,2.93
2019-02-11T01:58:03.412Z,2.99
2019-02-11T02:00:34.913Z,2.96
2019-02-11T02:03:07.562Z,2.98
2019-02-11T02:05:39.185Z,2.94
2019-02-11T02:08:10.751Z,2.88
2019-02-11T02:10:43.603Z,2.78
2019-02-11T02:13:16.700Z,2.80
2019-02-11T02:15:48.234Z,2.75
2019-02-11T02:18:19.812Z,2.83
2019-02-11T02:20:51.380Z,2.83
2019-02-11T02:23:22.959Z,2.85
2019-02-11T02:25:54.468Z,2.83
2019-02-11T02:28:26.169Z,2.91
2019-02-11T02:30:57.694Z,2.94
2019-02-11T02:33:29.308Z,2.97
2019-02-11T02:36:00.888Z,3.04
2019-02-11T02:38:32.447Z,3.02
2019-02-11T02:41:03.973Z,2.92
2019-02-11T02:43:35.476Z,2.85
2019-02-11T02:46:07.686Z,2.76
2019-02-11T02:48:39.170Z,2.69
2019-02-11T02:51:10.699Z,2.64
2019-02-11T02:53:42.259Z,2.69
2019-02-11T02:56:13.881Z,2.68
2019-02-11T02:58:45.341Z,2.58
2019-02-11T03:01:16.882Z,2.60
2019-02-11T03:03:48.490Z,2.55
2019-02-11T03:06:20.190Z,2.54
2019-02-11T03:08:51.717Z,2.53
2019-02-11T03:11:23.393Z,2.46
2019-02-11T03:14:03.821Z,2.45
2019-02-11T03:16:28.343Z,2.43
2019-02-11T03:18:59.927Z,2.41
2019-02-11T03:21:31.550Z,2.43
2019-02-11T03:24:03.251Z,2.43
2019-02-11T03:26:34.856Z,2.45
2019-02-11T03:29:06.616Z,2.45
2019-02-11T03:31:38.202Z,2.41
2019-02-11T03:34:09.766Z,2.38
2019-02-11T03:36:41.479Z,2.33
2019-02-11T03:39:12.992Z,2.36
2019-02-11T03:41:44.664Z,2.32
2019-02-11T03:44:16.339Z,2.29
2019-02-11T03:46:47.928Z,2.31
2019-02-11T03:49:19.643Z,2.34
2019-02-11T03:51:51.338Z,2.31
2019-02-11T03:54:22.846Z,2.29
2019-02-11T03:56:54.575Z,2.34
2019-02-11T03:59:26.208Z,2.33
2019-02-11T04:01:57.887Z,2.34
2019-02-11T04:04:29.510Z,2.33
2019-02-11T04:07:01.155Z,2.27
2019-02-11T04:09:32.745Z,2.23
2019-02-11T04:12:04.354Z,2.20
2019-02-11T04:14:35.995Z,2.13
2019-02-11T04:17:07.569Z,2.17
2019-02-11T04:19:39.057Z,2.19
2019-02-11T04:22:11.263Z,2.20
2019-02-11T04:24:42.818Z,2.14
2019-02-11T04:27:14.440Z,2.21
2019-02-11T04:29:46.098Z,2.19
2019-02-11T04:32:17.578Z,2.25
2019-02-11T04:34:49.130Z,2.27
2019-02-11T04:37:20.577Z,2.28
2019-02-11T04:39:52.288Z,2.29
2019-02-11T04:42:24.920Z,2.32
2019-02-11T04:44:56.457Z,2.26
2019-02-11T04:47:27.940Z,2.29
2019-02-11T04:49:59.478Z,2.30
2019-02-11T04:52:30.979Z,2.29
2019-02-11T04:55:02.598Z,2.28
2019-02-11T04:57:34.198Z,2.24
2019-02-11T05:00:06.707Z,2.20
2019-02-11T05:02:41.251Z,2.20
2019-02-11T05:05:13.202Z,2.24
2019-02-11T05:07:44.852Z,2.21
2019-02-11T05:10:16.563Z,2.24
2019-02-11T05:12:48.090Z,2.18
2019-02-11T05:15:19.624Z,2.14
2019-02-11T05:17:51.204Z,2.19
2019-02-11T05:20:22.834Z,2.16
2019-02-11T05:22:54.435Z,2.25
2019-02-11T05:25:25.943Z,2.22
2019-02-11T05:27:57.482Z,2.31
2019-02-11T05:30:29.126Z,2.28
2019-02-11T05:33:00.926Z,2.31
2019-02-11T05:35:32.584Z,2.39
2019-02-11T05:38:04.202Z,2.35
2019-02-11T05:40:35.913Z,2.38
2019-02-11T05:43:09.843Z,2.38
2019-02-11T05:45:41.399Z,2.34
2019-02-11T05:48:12.960Z,2.38
2019-02-11T05:50:44.453Z,2.46
2019-02-11T05:53:15.882Z,2.42
2019-02-11T05:55:47.582Z,2.45
2019-02-11T05:58:19.156Z,2.48
2019-02-11T06:00:50.745Z,2.43
2019-02-11T06:03:22.249Z,2.47
2019-02-11T06:05:53.898Z,2.51
2019-02-11T06:08:25.358Z,2.47
2019-02-11T06:10:56.949Z,2.56
2019-02-11T06:13:28.499Z,2.59
2019-02-11T06:16:02.881Z,2.63
2019-02-11T06:18:34.370Z,2.72
2019-02-11T06:21:06.082Z,2.79
2019-02-11T06:23:37.622Z,2.78
2019-02-11T06:26:09.180Z,2.80
2019-02-11T06:28:42.441Z,2.83
2019-02-11T06:31:13.974Z,2.83
2019-02-11T06:33:46.834Z,2.81
2019-02-11T06:36:18.475Z,2.95
2019-02-11T06:38:50.114Z,3.04
2019-02-11T06:41:21.639Z,3.10
2019-02-11T06:43:53.197Z,3.20
2019-02-11T06:46:24.799Z,3.34
2019-02-11T06:48:56.341Z,3.43
2019-02-11T06:51:28.050Z,3.57
2019-02-11T06:53:59.827Z,3.68
2019-02-11T06:56:31.408Z,3.82
2019-02-11T06:59:02.945Z,3.87
2019-02-11T07:01:34.593Z,3.89
2019-02-11T07:04:08.443Z,3.96
2019-02-11T07:06:40.030Z,4.09
2019-02-11T07:09:11.561Z,4.26
2019-02-11T07:11:43.110Z,4.39
2019-02-11T07:14:14.503Z,4.52
2019-02-11T07:16:46.078Z,4.63
2019-02-11T07:19:17.647Z,4.70
2019-02-11T07:21:49.190Z,4.76
2019-02-11T07:24:20.760Z,4.79
2019-02-11T07:26:52.280Z,4.82
2019-02-11T07:29:23.888Z,4.88
2019-02-11T07:31:55.462Z,4.94
2019-02-11T07:34:26.995Z,4.89
2019-02-11T07:36:58.457Z,4.92
2019-02-11T07:39:30.087Z,4.97
2019-02-11T07:42:18.837Z,5.00
2019-02-11T07:45:02.471Z,5.08
2019-02-11T07:47:36.971Z,5.15
2019-02-11T07:50:08.729Z,5.27
2019-02-11T07:52:41.633Z,5.33
2019-02-11T07:55:13.287Z,5.41
2019-02-11T07:57:44.778Z,5.50
2019-02-11T08:00:16.504Z,5.58
2019-02-11T08:02:49.844Z,5.59
2019-02-11T08:05:21.695Z,5.65
2019-02-11T08:07:53.291Z,5.63
2019-02-11T08:10:24.838Z,5.66
2019-02-11T08:12:56.367Z,5.75
2019-02-11T08:15:28.157Z,5.80
2019-02-11T08:18:06.691Z,5.72
2019-02-11T08:20:38.229Z,5.85
2019-02-11T08:23:13.594Z,6.02
2019-02-11T08:25:44.262Z,6.20
2019-02-11T08:28:19.496Z,6.27
2019-02-11T08:30:49.103Z,6.32
2019-02-11T08:33:20.719Z,6.46
2019-02-11T08:35:52.381Z,6.59
2019-02-11T08:38:24.109Z,6.74
2019-02-11T08:40:55.741Z,6.80
2019-02-11T08:43:27.412Z,6.94
2019-02-11T08:45:59.101Z,7.01
2019-02-11T08:48:30.693Z,7.18
2019-02-11T08:51:02.262Z,7.39
2019-02-11T08:53:35.233Z,7.56
2019-02-11T08:56:06.840Z,7.59
2019-02-11T08:58:38.437Z,7.72
2019-02-11T09:01:13.611Z,7.90
2019-02-11T09:03:45.255Z,8.10
2019-02-11T09:06:18.062Z,8.41
2019-02-11T09:08:52.682Z,8.68
2019-02-11T09:11:24.285Z,8.75
2019-02-11T09:13:55.908Z,8.86
2019-02-11T09:16:27.565Z,9.07
2019-02-11T09:18:59.146Z,9.35
2019-02-11T09:21:30.754Z,9.30
2019-02-11T09:24:02.391Z,9.60
2019-02-11T09:26:33.851Z,9.80
2019-02-11T09:29:05.617Z,10.12
2019-02-11T09:31:37.170Z,10.56
2019-02-11T09:34:08.810Z,10.68
2019-02-11T09:36:40.370Z,10.63
2019-02-11T09:39:11.957Z,10.63
2019-02-11T09:41:43.765Z,10.69
2019-02-11T09:44:15.314Z,10.86
2019-02-11T09:46:46.828Z,10.71
2019-02-11T09:49:18.534Z,10.85
2019-02-11T09:51:50.728Z,10.82
2019-02-11T09:54:22.324Z,10.73
2019-02-11T09:56:53.815Z,10.73
2019-02-11T09:59:25.399Z,10.98
2019-02-11T10:01:58.093Z,11.28
2019-02-11T10:04:29.684Z,11.41
2019-02-11T10:07:01.315Z,11.56
2019-02-11T10:09:33.020Z,11.77
2019-02-11T10:12:04.761Z,11.67
2019-02-11T10:14:39.945Z,11.62
2019-02-11T10:17:11.455Z,11.51
2019-02-11T10:19:43.117Z,11.61
2019-02-11T10:22:14.619Z,11.87
2019-02-11T10:24:46.317Z,12.32
2019-02-11T10:27:17.857Z,12.39
2019-02-11T10:29:49.460Z,12.23
2019-02-11T10:32:21.100Z,12.23
2019-02-11T10:34:53.837Z,12.10
2019-02-11T10:37:25.539Z,12.28
2019-02-11T10:39:57.149Z,12.46
2019-02-11T10:42:28.878Z,12.46
2019-02-11T10:45:00.605Z,12.60
2019-02-11T10:47:32.335Z,12.48
2019-02-11T10:50:04.215Z,12.40
2019-02-11T10:52:35.957Z,12.70
2019-02-11T10:55:09.153Z,12.70
2019-02-11T10:57:41.436Z,13.13
2019-02-11T11:00:15.778Z,13.16
2019-02-11T11:02:47.389Z,13.62
2019-02-11T11:05:19.100Z,13.62
2019-02-11T11:07:50.938Z,13.69
2019-02-11T11:10:28.370Z,13.79
2019-02-11T11:13:01.136Z,13.63
2019-02-11T11:15:32.909Z,13.69
2019-02-11T11:18:04.815Z,13.54
2019-02-11T11:20:38.139Z,13.42
2019-02-11T11:23:09.805Z,13.36
2019-02-11T11:25:41.352Z,13.50
2019-02-11T11:28:13.029Z,13.43
2019-02-11T11:30:44.772Z,13.50
2019-02-11T11:33:28.692Z,13.30
2019-02-11T11:36:00.547Z,13.15
2019-02-11T11:38:32.213Z,13.11
2019-02-11T11:41:04.242Z,12.86
2019-02-11T11:43:35.982Z,12.89
2019-02-11T11:46:07.615Z,12.66
2019-02-11T11:48:39.357Z,12.61
2019-02-11T11:51:10.981Z,12.54
2019-02-11T11:53:42.564Z,12.26
2019-02-11T11:56:14.085Z,12.16
2019-02-11T11:58:45.817Z,11.88
2019-02-11T12:01:19.387Z,11.88
2019-02-11T12:03:51.118Z,11.72
2019-02-11T12:06:25.911Z,11.53
2019-02-11T12:08:59.369Z,11.53
2019-02-11T12:11:31.996Z,11.69
2019-02-11T12:14:07.507Z,11.51
2019-02-11T12:16:56.210Z,11.52
2019-02-11T12:19:17.143Z,11.47
2019-02-11T12:21:50.246Z,11.40
2019-02-11T12:24:24.732Z,11.33
2019-02-11T12:26:57.293Z,11.31
2019-02-11T12:29:29.768Z,11.40
2019-02-11T12:32:01.784Z,11.42
2019-02-11T12:34:34.353Z,11.50
2019-02-11T12:37:09.491Z,11.57
2019-02-11T12:39:43.997Z,11.61
2019-02-11T12:42:17.702Z,11.70
2019-02-11T12:44:53.421Z,11.75
2019-02-11T12:47:28.479Z,11.66
2019-02-11T12:50:01.037Z,11.66
2019-02-11T12:52:32.678Z,11.64
2019-02-11T12:55:07.629Z,11.61
2019-02-11T12:57:37.717Z,11.63
2019-02-11T13:00:16.248Z,11.52
2019-02-11T13:02:46.011Z,11.52
2019-02-11T13:05:22.077Z,11.42
2019-02-11T13:07:53.647Z,11.40
2019-02-11T13:10:25.228Z,11.47
2019-02-11T13:12:56.913Z,11.52
2019-02-11T13:15:56.775Z,11.57
2019-02-11T13:18:04.964Z,11.47
2019-02-11T13:20:37.726Z,11.27
2019-02-11T13:23:09.436Z,11.27
2019-02-11T13:25:41.310Z,11.16
2019-02-11T13:28:13.019Z,11.16
2019-02-11T13:30:44.685Z,11.14
2019-02-11T13:33:16.385Z,11.15
2019-02-11T13:35:48.050Z,11.05
2019-02-11T13:38:20.444Z,11.05
2019-02-11T13:40:51.934Z,11.07
2019-02-11T13:43:23.475Z,10.86
2019-02-11T13:45:54.997Z,10.86
2019-02-11T13:48:26.741Z,10.83
2019-02-11T13:51:00.074Z,10.76
2019-02-11T13:53:31.846Z,10.62
2019-02-11T13:56:06.885Z,10.48
2019-02-11T13:58:38.467Z,10.44
2019-02-11T14:01:12.336Z,10.35
2019-02-11T14:03:43.996Z,10.30
2019-02-11T14:06:17.311Z,10.36
2019-02-11T14:08:50.037Z,10.41
2019-02-11T14:11:23.058Z,10.44
2019-02-11T14:14:02.649Z,10.40
2019-02-11T14:16:28.151Z,10.37
2019-02-11T14:19:00.042Z,10.35
2019-02-11T14:21:31.712Z,10.33
2019-02-11T14:24:03.427Z,10.31
2019-02-11T14:26:35.161Z,10.27
2019-02-11T14:29:06.855Z,10.20
2019-02-11T14:31:38.550Z,10.19
2019-02-11T14:34:11.086Z,10.11
2019-02-11T14:36:43.979Z,10.03
2019-02-11T14:39:16.919Z,10.02
2019-02-11T14:41:48.737Z,9.98
2019-02-11T14:44:20.621Z,9.89
2019-02-11T14:46:52.359Z,9.67
2019-02-11T14:49:26.912Z,9.47
2019-02-11T14:51:58.639Z,9.11
2019-02-11T14:54:30.409Z,8.99
2019-02-11T14:57:02.205Z,8.78
2019-02-11T14:59:33.719Z,8.60
2019-02-11T15:02:05.399Z,8.49
2019-02-11T15:04:36.924Z,8.49
2019-02-11T15:07:08.452Z,8.40
2019-02-11T15:09:40.046Z,8.34
2019-02-11T15:12:11.545Z,8.24
2019-02-11T15:14:43.024Z,8.19
2019-02-11T15:17:14.617Z,8.13
2019-02-11T15:19:46.147Z,8.11
2019-02-11T15:22:17.667Z,8.05
2019-02-11T15:24:49.374Z,8.06
2019-02-11T15:27:20.938Z,7.97
2019-02-11T15:29:52.414Z,7.84
2019-02-11T15:32:26.953Z,7.71
2019-02-11T15:34:58.629Z,7.59
2019-02-11T15:37:31.768Z,7.47
2019-02-11T15:40:03.357Z,7.33
2019-02-11T15:42:34.969Z,7.27
2019-02-11T15:45:07.897Z,7.16
2019-02-11T15:47:39.437Z,7.09
2019-02-11T15:50:12.480Z,7.07
2019-02-11T15:52:45.129Z,7.08
2019-02-11T15:55:18.421Z,7.08
2019-02-11T15:57:50.005Z,6.99
2019-02-11T16:00:22.456Z,6.92
2019-02-11T16:02:54.138Z,6.86
2019-02-11T16:05:25.740Z,6.79
2019-02-11T16:07:58.860Z,6.74
2019-02-11T16:10:30.469Z,6.71
2019-02-11T16:13:02.779Z,6.55
2019-02-11T16:15:34.519Z,6.46
2019-02-11T16:18:07.267Z,6.45
2019-02-11T16:20:38.806Z,6.40
2019-02-11T16:23:10.559Z,6.41
2019-02-11T16:25:42.110Z,6.48
2019-02-11T16:28:15.092Z,6.54
2019-02-11T16:30:47.275Z,6.58
2019-02-11T16:33:18.987Z,6.53
2019-02-11T16:35:50.706Z,6.45
2019-02-11T16:38:22.441Z,6.41
2019-02-11T16:40:57.014Z,6.48
2019-02-11T16:43:28.625Z,6.64
2019-02-11T16:46:00.340Z,6.78
2019-02-11T16:48:32.035Z,6.84
2019-02-11T16:51:03.687Z,6.94
2019-02-11T16:53:35.216Z,7.01
2019-02-11T16:56:06.848Z,7.05
2019-02-11T16:58:38.465Z,7.14
2019-02-11T17:01:11.323Z,7.16
2019-02-11T17:03:42.971Z,7.13
2019-02-11T17:06:14.563Z,7.12
2019-02-11T17:08:46.158Z,7.16
2019-02-11T17:11:17.602Z,7.09
2019-02-11T17:13:49.222Z,7.11
2019-02-11T17:16:21.008Z,7.09
2019-02-11T17:18:52.628Z,7.12
2019-02-11T17:21:43.027Z,7.16
2019-02-11T17:24:14.601Z,7.22
2019-02-11T17:26:46.075Z,7.26
2019-02-11T17:29:17.712Z,7.25
2019-02-11T17:31:49.223Z,7.26
2019-02-11T17:34:20.833Z,7.25
2019-02-11T17:36:54.944Z,7.36
2019-02-11T17:39:26.649Z,7.52
2019-02-11T17:41:58.248Z,7.70
2019-02-11T17:44:31.465Z,7.88
2019-02-11T17:47:02.968Z,7.94
2019-02-11T17:49:34.626Z,7.97
2019-02-11T17:52:07.484Z,7.90
2019-02-11T17:54:39.137Z,7.89
2019-02-11T17:57:10.659Z,7.92
2019-02-11T17:59:42.527Z,7.89
2019-02-11T18:02:15.988Z,7.92
2019-02-11T18:04:47.536Z,7.95
2019-02-11T18:07:19.279Z,7.95
2019-02-11T18:09:50.780Z,7.94
2019-02-11T18:12:24.504Z,7.91
2019-02-11T18:14:55.895Z,7.90
2019-02-11T18:17:27.636Z,7.88
2019-02-11T18:19:59.329Z,7.87
2019-02-11T18:22:33.166Z,7.94
2019-02-11T18:25:04.683Z,7.91
2019-02-11T18:27:36.238Z,7.88
2019-02-11T18:30:08.399Z,7.80
2019-02-11T18:32:40.039Z,7.82
2019-02-11T18:35:14.134Z,7.83
2019-02-11T18:37:45.967Z,7.87
2019-02-11T18:40:17.878Z,7.91
2019-02-11T18:42:51.961Z,7.96
2019-02-11T18:45:25.558Z,7.94
2019-02-11T18:47:57.952Z,7.96
2019-02-11T18:50:29.501Z,7.96
2019-02-11T18:53:01.202Z,7.90
2019-02-11T18:55:38.755Z,7.87
2019-02-11T18:58:10.318Z,7.83
2019-02-11T19:00:41.937Z,7.86
2019-02-11T19:03:14.809Z,7.84
2019-02-11T19:05:46.391Z,7.80
2019-02-11T19:08:17.963Z,7.78
2019-02-11T19:10:49.573Z,7.75
2019-02-11T19:13:21.161Z,7.83
2019-02-11T19:15:52.812Z,7.81
2019-02-11T19:18:24.434Z,7.76
2019-02-11T19:20:57.663Z,7.67
2019-02-11T19:23:29.268Z,7.60
2019-02-11T19:26:00.995Z,7.55
2019-02-11T19:28:32.758Z,7.56
2019-02-11T19:31:04.350Z,7.56
2019-02-11T19:33:36.035Z,7.61
2019-02-11T19:36:07.666Z,7.71
2019-02-11T19:38:39.199Z,7.70
2019-02-11T19:41:10.828Z,7.70
2019-02-11T19:43:42.455Z,7.72
2019-02-11T19:46:13.906Z,7.72
2019-02-11T19:48:46.615Z,7.70
2019-02-11T19:51:18.340Z,7.71
2019-02-11T19:53:49.910Z,7.71
2019-02-11T19:56:21.559Z,7.72
2019-02-11T19:58:53.180Z,7.75
2019-02-11T20:01:24.876Z,7.73
2019-02-11T20:03:56.691Z,7.78
2019-02-11T20:06:28.206Z,7.81
2019-02-11T20:08:59.965Z,7.85
2019-02-11T20:11:31.585Z,7.85
2019-02-11T20:14:04.796Z,7.88
2019-02-11T20:16:36.273Z,7.92
2019-02-11T20:19:07.809Z,7.85
2019-02-11T20:21:39.298Z,7.82
2019-02-11T20:24:10.990Z,7.84
2019-02-11T20:26:44.216Z,7.90
2019-02-11T20:29:15.931Z,7.90
2019-02-11T20:31:47.590Z,7.88
2019-02-11T20:34:19.212Z,7.89
2019-02-11T20:36:50.761Z,7.87
2019-02-11T20:39:25.506Z,7.82
2019-02-11T20:42:01.014Z,7.78
2019-02-11T20:44:33.238Z,7.88
2019-02-11T20:47:10.192Z,7.88
2019-02-11T20:49:41.860Z,7.89
2019-02-11T20:52:14.721Z,7.92
2019-02-11T20:54:46.250Z,7.91
2019-02-11T20:57:17.868Z,7.95
2019-02-11T20:59:52.440Z,7.97
2019-02-11T21:02:24.093Z,7.91
2019-02-11T21:04:55.731Z,7.95
2019-02-11T21:07:28.875Z,7.96
2019-02-11T21:10:00.614Z,7.99
2019-02-11T21:12:32.241Z,8.00
2019-02-11T21:15:03.754Z,8.00
2019-02-11T21:17:35.330Z,8.01
2019-02-11T21:20:08.498Z,7.93
2019-02-11T21:22:41.688Z,7.92
2019-02-11T21:25:13.389Z,7.95
2019-02-11T21:27:44.982Z,8.01
2019-02-11T21:30:16.681Z,7.98
2019-02-11T21:32:48.301Z,7.97
2019-02-11T21:35:19.836Z,7.97
2019-02-11T21:37:51.454Z,7.91
2019-02-11T21:40:26.019Z,7.92
2019-02-11T21:42:57.750Z,7.90
2019-02-11T21:45:29.281Z,7.85
2019-02-11T21:48:00.886Z,7.79
2019-02-11T21:50:34.158Z,7.80
2019-02-11T21:53:05.731Z,7.82
2019-02-11T21:55:37.389Z,7.83
2019-02-11T21:58:08.890Z,7.83
2019-02-11T22:00:40.451Z,7.81
2019-02-11T22:03:12.588Z,7.85
2019-02-11T22:05:44.576Z,7.87
2019-02-11T22:08:16.141Z,7.84
2019-02-11T22:10:47.756Z,7.80
2019-02-11T22:13:19.393Z,7.80
2019-02-11T22:15:51.011Z,7.78
2019-02-11T22:18:22.669Z,7.72
2019-02-11T22:20:54.290Z,7.70
2019-02-11T22:23:25.905Z,7.68
2019-02-11T22:25:57.538Z,7.66
2019-02-11T22:28:29.222Z,7.62
2019-02-11T22:31:00.891Z,7.64
2019-02-11T22:33:32.509Z,7.68
2019-02-11T22:36:04.231Z,7.71
2019-02-11T22:38:35.778Z,7.70
2019-02-11T22:41:08.405Z,7.65
2019-02-11T22:43:39.939Z,7.66
2019-02-11T22:46:11.528Z,7.64
2019-02-11T22:48:43.311Z,7.63
2019-02-11T22:51:14.953Z,7.63
2019-02-11T22:53:47.051Z,7.65
2019-02-11T22:56:20.353Z,7.68
2019-02-11T22:58:51.936Z,7.66
2019-02-11T23:01:23.766Z,7.65
2019-02-11T23:03:56.075Z,7.65
2019-02-11T23:06:27.615Z,7.59
2019-02-11T23:08:59.356Z,7.62
2019-02-11T23:11:30.846Z,7.63
2019-02-11T23:14:02.413Z,7.65
2019-02-11T23:16:33.938Z,7.63
2019-02-11T23:19:06.046Z,7.62
2019-02-11T23:21:40.496Z,7.64
2019-02-11T23:24:18.233Z,7.63
2019-02-11T23:26:49.953Z,7.63
2019-02-11T23:29:21.501Z,7.68
2019-02-11T23:31:53.112Z,7.64
2019-02-11T23:34:24.675Z,7.64
2019-02-11T23:36:56.359Z,7.65
2019-02-11T23:39:28.948Z,7.66
2019-02-11T23:42:00.577Z,7.64
2019-02-11T23:44:32.054Z,7.61
2019-02-11T23:47:03.744Z,7.60
2019-02-11T23:49:35.274Z,7.53
2019-02-11T23:52:06.916Z,7.56
2019-02-11T23:54:39.634Z,7.59
2019-02-11T23:57:11.195Z,7.64
2019-02-11T23:59:42.767Z,7.64
